createdAt,value
2023-01-19T00:03:27.019Z,14.60
2023-01-19T00:06:19.693Z,14.10
2023-01-19T00:13:47.630Z,14.90
2023-01-19T00:17:24.838Z,15.40
2023-01-19T00:25:07.522Z,15.80
2023-01-19T00:27:08.403Z,15.60
2023-01-19T00:28:06.555Z,16.70
2023-01-19T00:29:06.532Z,16.50
2023-01-19T00:31:17.548Z,16.80
2023-01-19T00:34:09.635Z,17.00
2023-01-19T00:44:39.763Z,17.80
2023-01-19T00:51:16.722Z,19.60
2023-01-19T01:00:00.982Z,18.20
2023-01-19T01:02:56.733Z,19.70
2023-01-19T01:08:25.658Z,18.70
2023-01-19T01:12:41.065Z,19.80
2023-01-19T01:15:03.274Z,20.50
2023-01-19T01:17:02.210Z,20.60
2023-01-19T01:23:22.036Z,21.80
2023-01-19T01:27:14.292Z,21.30
2023-01-19T01:29:04.796Z,20.90
2023-01-19T01:30:31.306Z,21.00
2023-01-19T01:33:05.862Z,21.10
2023-01-19T01:35:25.535Z,20.80
2023-01-19T01:44:10.500Z,22.60
2023-01-19T01:48:19.971Z,22.40
2023-01-19T01:52:16.499Z,22.10
2023-01-19T02:07:53.119Z,23.80
2023-01-19T02:10:48.214Z,25.10
2023-01-19T02:16:35.449Z,24.50
2023-01-19T02:19:06.175Z,24.70
2023-01-19T02:21:24.266Z,25.20
2023-01-19T02:25:33.090Z,25.40
2023-01-19T02:31:03.756Z,24.70
2023-01-19T02:35:23.159Z,24.50
2023-01-19T02:36:53.660Z,25.00
2023-01-19T02:39:32.677Z,23.90
2023-01-19T02:45:08.789Z,25.90
2023-01-19T02:47:41.069Z,24.80
2023-01-19T02:50:18.587Z,24.70
2023-01-19T02:57:38.099Z,23.90
2023-01-19T02:59:09.324Z,25.60
2023-01-19T03:01:31.131Z,24.60
2023-01-19T03:02:57.274Z,25.30
2023-01-19T03:05:50.799Z,25.10
2023-01-19T03:07:48.088Z,24.90
2023-01-19T03:11:48.620Z,26.00
2023-01-19T03:16:51.813Z,25.40
2023-01-19T03:18:53.835Z,25.00
2023-01-19T03:20:21.361Z,24.00
2023-01-19T03:22:39.843Z,23.60
2023-01-19T03:24:11.299Z,25.20
2023-01-19T03:28:01.142Z,23.80
2023-01-19T03:33:56.107Z,23.50
2023-01-19T03:36:50.054Z,24.40
2023-01-19T03:40:33.777Z,22.90
2023-01-19T03:44:35.068Z,22.10
2023-01-19T03:47:11.273Z,22.90
2023-01-19T03:53:45.443Z,20.80
2023-01-19T03:56:49.323Z,20.20
2023-01-19T03:58:19.220Z,19.70
2023-01-19T03:59:50.090Z,20.00
2023-01-19T04:06:05.084Z,17.50
2023-01-19T04:12:39.422Z,17.60
2023-01-19T04:14:07.777Z,17.60
2023-01-19T04:15:38.711Z,19.10
2023-01-19T04:21:07.135Z,18.30
2023-01-19T04:23:06.192Z,17.40
2023-01-19T04:24:36.224Z,17.50
2023-01-19T04:28:35.078Z,17.90
2023-01-19T04:30:02.964Z,16.70
2023-01-19T04:32:34.756Z,16.90
2023-01-19T04:41:23.163Z,17.20
2023-01-19T04:51:21.324Z,17.20
2023-01-19T04:52:48.738Z,17.90
2023-01-19T04:56:36.664Z,17.20
2023-01-19T04:58:08.574Z,17.60
2023-01-19T05:05:15.477Z,18.00
2023-01-19T05:06:43.862Z,17.00
2023-01-19T05:09:24.567Z,16.90
2023-01-19T05:13:20.206Z,17.10
2023-01-19T05:16:12.736Z,16.30
2023-01-19T05:19:52.975Z,16.80
2023-01-19T05:22:24.644Z,15.80
2023-01-19T05:23:54.711Z,16.30
2023-01-19T05:36:09.703Z,12.90
2023-01-19T05:37:41.204Z,12.60
2023-01-19T05:40:00.544Z,13.30
2023-01-19T05:41:47.633Z,13.00
2023-01-19T05:43:49.045Z,12.30
2023-01-19T05:45:50.758Z,12.50
2023-01-19T05:47:40.296Z,12.50
2023-01-19T05:50:09.897Z,12.30
2023-01-19T05:54:33.078Z,12.20
2023-01-19T05:57:05.992Z,11.20
2023-01-19T06:00:16.440Z,10.30
2023-01-19T06:04:05.722Z,9.20
2023-01-19T06:08:38.712Z,8.80
2023-01-19T06:15:02.534Z,7.90
2023-01-19T06:16:32.522Z,8.50
2023-01-19T06:20:23.199Z,7.90
2023-01-19T06:28:14.991Z,10.00
2023-01-19T06:33:53.614Z,8.10
2023-01-19T06:40:46.403Z,8.20
2023-01-19T06:42:44.982Z,6.20
2023-01-19T06:46:34.565Z,14.00
2023-01-19T06:58:38.947Z,5.30
2023-01-19T07:01:59.312Z,7.10
2023-01-19T07:03:29.069Z,11.30
2023-01-19T07:07:29.779Z,9.40
2023-01-19T07:24:23.123Z,5.90
2023-01-19T07:26:50.528Z,6.10
2023-01-19T07:34:35.078Z,7.80
2023-01-19T07:37:25.071Z,7.00
2023-01-19T07:44:24.365Z,8.20
2023-01-19T07:45:53.208Z,9.50
2023-01-19T07:47:54.586Z,8.70
2023-01-19T07:55:21.242Z,7.90
2023-01-19T07:57:58.509Z,8.50
2023-01-19T08:00:30.706Z,7.40
2023-01-19T08:03:22.472Z,6.20
2023-01-19T08:07:02.366Z,8.30
2023-01-19T08:13:08.461Z,7.40
2023-01-19T08:16:53.633Z,8.90
2023-01-19T08:20:25.249Z,11.20
2023-01-19T08:21:54.293Z,12.00
2023-01-19T08:23:46.259Z,9.30
2023-01-19T08:26:08.462Z,11.60
2023-01-19T08:30:26.152Z,8.30
2023-01-19T08:32:24.194Z,9.10
2023-01-19T08:35:24.944Z,7.40
2023-01-19T08:42:22.773Z,7.80
2023-01-19T08:45:46.430Z,6.20
2023-01-19T08:49:28.010Z,5.10
2023-01-19T08:52:18.680Z,5.00
2023-01-19T08:54:38.694Z,6.30
2023-01-19T08:56:10.831Z,5.40
2023-01-19T09:02:30.840Z,5.80
2023-01-19T09:07:42.700Z,5.30
2023-01-19T09:09:15.850Z,5.70
2023-01-19T09:11:30.103Z,6.60
2023-01-19T09:15:59.086Z,8.70
2023-01-19T09:19:06.892Z,18.30
2023-01-19T09:20:35.835Z,13.90
2023-01-19T09:22:04.670Z,19.90
2023-01-19T09:24:27.282Z,16.00
2023-01-19T09:26:17.076Z,9.40
2023-01-19T09:32:13.057Z,15.20
2023-01-19T09:34:44.078Z,16.50
2023-01-19T09:38:04.248Z,10.20
2023-01-19T09:43:18.160Z,6.30
2023-01-19T09:47:23.685Z,5.20
2023-01-19T09:49:22.927Z,6.00
2023-01-19T09:55:05.146Z,6.80
2023-01-19T09:56:55.941Z,13.10
2023-01-19T10:03:05.007Z,7.40
2023-01-19T10:06:29.415Z,11.60
2023-01-19T10:15:11.269Z,7.10
2023-01-19T10:17:10.720Z,6.40
2023-01-19T10:23:22.359Z,8.20
2023-01-19T10:25:34.718Z,10.20
2023-01-19T10:28:30.263Z,8.30
2023-01-19T10:30:01.693Z,11.30
2023-01-19T10:32:21.953Z,10.50
2023-01-19T10:34:13.229Z,7.40
2023-01-19T10:46:28.896Z,3.20
2023-01-19T10:50:04.649Z,5.00
2023-01-19T11:03:15.354Z,3.40
2023-01-19T11:11:23.837Z,3.50
2023-01-19T11:16:30.333Z,3.80
2023-01-19T11:18:26.644Z,3.40
2023-01-19T11:22:07.455Z,8.90
2023-01-19T11:23:36.790Z,16.90
2023-01-19T11:25:56.358Z,5.70
2023-01-19T11:27:56.448Z,4.90
2023-01-19T11:32:05.570Z,7.40
2023-01-19T11:35:22.567Z,7.30
2023-01-19T11:40:04.619Z,12.10
2023-01-19T11:41:33.533Z,9.70
2023-01-19T11:43:03.461Z,9.40
2023-01-19T11:46:32.026Z,6.90
2023-01-19T11:55:19.389Z,6.70
2023-01-19T12:00:36.797Z,6.60
2023-01-19T12:04:01.578Z,6.00
2023-01-19T12:05:29.739Z,5.50
2023-01-19T12:07:29.370Z,7.20
2023-01-19T12:09:49.125Z,3.40
2023-01-19T12:13:56.206Z,4.80
2023-01-19T12:16:55.191Z,4.10
2023-01-19T12:23:15.278Z,4.10
2023-01-19T12:29:14.749Z,4.30
2023-01-19T12:40:14.648Z,3.60
2023-01-19T12:41:51.247Z,4.80
2023-01-19T12:44:23.444Z,3.80
2023-01-19T12:46:25.457Z,5.10
2023-01-19T12:51:24.806Z,5.70
2023-01-19T12:58:57.980Z,4.80
2023-01-19T13:01:36.816Z,5.40
2023-01-19T13:07:58.230Z,4.80
2023-01-19T13:10:02.083Z,5.90
2023-01-19T13:13:26.913Z,6.40
2023-01-19T13:14:59.156Z,3.50
2023-01-19T13:16:27.716Z,4.50
2023-01-19T13:18:48.204Z,3.70
2023-01-19T13:23:29.957Z,4.00
2023-01-19T13:26:38.549Z,4.50
2023-01-19T13:28:56.376Z,4.90
2023-01-19T13:31:47.807Z,5.60
2023-01-19T13:39:45.898Z,5.90
2023-01-19T13:44:24.508Z,4.90
2023-01-19T13:50:38.828Z,3.80
2023-01-19T13:52:05.839Z,3.90
2023-01-19T13:55:01.134Z,5.40
2023-01-19T13:56:44.474Z,6.00
2023-01-19T14:00:23.346Z,6.30
2023-01-19T14:02:12.086Z,4.90
2023-01-19T14:03:40.521Z,3.30
2023-01-19T14:06:32.072Z,5.00
2023-01-19T14:13:30.859Z,2.60
2023-01-19T14:14:59.745Z,2.60
2023-01-19T14:16:57.431Z,2.60
2023-01-19T14:18:47.680Z,4.50
2023-01-19T14:20:40.544Z,2.40
2023-01-19T14:24:53.053Z,4.00
2023-01-19T14:26:56.556Z,4.20
2023-01-19T14:30:53.425Z,3.90
2023-01-19T14:38:18.944Z,4.30
2023-01-19T14:45:24.433Z,6.00
2023-01-19T14:47:33.738Z,8.10
2023-01-19T14:51:11.873Z,10.00
2023-01-19T14:52:40.348Z,8.70
2023-01-19T14:58:43.476Z,8.10
2023-01-19T15:01:35.506Z,9.20
2023-01-19T15:07:36.121Z,12.10
2023-01-19T15:09:32.872Z,11.60
2023-01-19T15:11:04.172Z,12.20
2023-01-19T15:13:22.433Z,11.80
2023-01-19T15:17:19.898Z,12.10
2023-01-19T15:22:48.761Z,13.10
2023-01-19T15:27:00.478Z,14.10
2023-01-19T15:28:29.828Z,14.80
2023-01-19T15:34:00.263Z,16.50
2023-01-19T15:40:42.027Z,19.40
2023-01-19T15:44:53.994Z,18.70
2023-01-19T15:50:25.197Z,20.70
2023-01-19T15:53:16.387Z,19.40
2023-01-19T15:57:26.698Z,20.20
2023-01-19T15:59:27.225Z,19.30
2023-01-19T16:00:54.875Z,19.90
2023-01-19T16:02:55.520Z,19.10
2023-01-19T16:04:26.257Z,19.40
2023-01-19T16:06:24.516Z,19.70
2023-01-19T16:08:47.058Z,17.80
2023-01-19T16:10:14.321Z,17.60
2023-01-19T16:13:17.121Z,17.90
2023-01-19T16:15:16.235Z,16.20
2023-01-19T16:18:35.304Z,16.50
2023-01-19T16:20:25.820Z,19.90
2023-01-19T16:23:48.358Z,18.20
2023-01-19T16:28:58.425Z,21.10
2023-01-19T16:30:48.290Z,25.00
2023-01-19T16:32:47.070Z,20.80
2023-01-19T16:34:46.825Z,20.20
2023-01-19T16:38:33.887Z,17.90
2023-01-19T16:41:42.049Z,17.90
2023-01-19T16:44:17.800Z,19.30
2023-01-19T16:48:26.736Z,17.90
2023-01-19T16:52:55.349Z,18.20
2023-01-19T16:56:09.250Z,18.40
2023-01-19T16:57:49.272Z,17.50
2023-01-19T16:59:18.236Z,18.40
2023-01-19T17:05:23.240Z,18.50
2023-01-19T17:07:12.626Z,17.80
2023-01-19T17:09:30.049Z,16.30
2023-01-19T17:14:09.052Z,16.40
2023-01-19T17:17:08.504Z,15.90
2023-01-19T17:20:09.747Z,15.10
2023-01-19T17:24:45.986Z,15.90
2023-01-19T17:28:18.990Z,15.90
2023-01-19T17:30:19.662Z,16.40
2023-01-19T17:33:41.926Z,18.00
2023-01-19T17:36:13.220Z,18.10
2023-01-19T17:39:50.626Z,16.60
2023-01-19T17:41:41.395Z,18.30
2023-01-19T17:43:11.374Z,18.00
2023-01-19T17:45:59.146Z,18.10
2023-01-19T17:48:28.564Z,19.30
2023-01-19T17:49:58.903Z,19.70
2023-01-19T17:51:49.058Z,18.60
2023-01-19T17:56:25.843Z,19.70
2023-01-19T17:58:15.000Z,20.40
2023-01-19T18:06:25.509Z,21.50
2023-01-19T18:10:09.377Z,23.60
2023-01-19T18:14:53.310Z,24.50
2023-01-19T18:17:14.119Z,24.40
2023-01-19T18:18:48.827Z,24.40
2023-01-19T18:20:13.831Z,25.00
2023-01-19T18:23:40.624Z,26.80
2023-01-19T18:25:10.556Z,26.80
2023-01-19T18:26:37.546Z,28.20
2023-01-19T18:28:09.201Z,28.20
2023-01-19T18:31:16.558Z,29.40
2023-01-19T18:33:18.984Z,30.50
2023-01-19T18:36:12.422Z,28.70
2023-01-19T18:38:39.133Z,30.90
2023-01-19T18:40:40.568Z,30.80
2023-01-19T18:42:11.392Z,31.90
2023-01-19T18:47:48.196Z,34.10
2023-01-19T18:49:17.565Z,33.00
2023-01-19T18:51:06.356Z,33.40
2023-01-19T18:52:06.285Z,33.10
2023-01-19T18:53:27.302Z,34.10
2023-01-19T18:56:48.947Z,34.30
2023-01-19T18:59:12.142Z,33.00
2023-01-19T19:06:38.462Z,33.90
2023-01-19T19:10:20.894Z,35.60
2023-01-19T19:12:43.190Z,36.00
2023-01-19T19:15:05.720Z,36.70
2023-01-19T19:18:30.896Z,37.20
2023-01-19T19:20:50.489Z,37.70
2023-01-19T19:22:41.446Z,37.70
2023-01-19T19:24:41.281Z,36.80
2023-01-19T19:26:09.589Z,36.50
2023-01-19T19:31:13.480Z,39.00
2023-01-19T19:38:34.239Z,38.40
2023-01-19T19:40:24.179Z,38.90
2023-01-19T19:43:24.166Z,38.90
2023-01-19T19:46:31.485Z,38.70
2023-01-19T19:48:01.373Z,39.90
2023-01-19T19:49:30.257Z,39.00
2023-01-19T19:51:31.315Z,38.50
2023-01-19T19:54:18.092Z,39.80
2023-01-19T19:56:37.323Z,39.00
2023-01-19T19:58:04.587Z,38.20
2023-01-19T20:00:25.455Z,39.20
2023-01-19T20:06:18.480Z,39.80
2023-01-19T20:07:50.273Z,40.60
2023-01-19T20:09:50.531Z,40.20
2023-01-19T20:12:40.887Z,39.70
2023-01-19T20:15:18.809Z,38.70
2023-01-19T20:16:50.447Z,38.30
2023-01-19T20:18:09.568Z,39.70
2023-01-19T20:18:48.552Z,41.20
2023-01-19T20:23:34.621Z,39.90
2023-01-19T20:29:05.303Z,42.70
2023-01-19T20:31:23.830Z,45.80
2023-01-19T20:33:12.658Z,46.50
2023-01-19T20:35:10.395Z,46.10
2023-01-19T20:36:41.657Z,41.70
2023-01-19T20:38:44.335Z,42.10
2023-01-19T20:40:32.113Z,43.40
2023-01-19T20:42:02.976Z,46.40
2023-01-19T20:43:31.012Z,42.90
2023-01-19T20:45:19.785Z,45.40
2023-01-19T20:50:21.656Z,44.50
2023-01-19T20:55:50.190Z,43.70
2023-01-19T20:57:22.350Z,42.70
2023-01-19T20:59:20.222Z,45.20
2023-01-19T21:04:40.627Z,40.70
2023-01-19T21:11:27.925Z,40.60
2023-01-19T21:14:26.716Z,39.70
2023-01-19T21:15:55.582Z,40.00
2023-01-19T21:24:22.605Z,40.50
2023-01-19T21:26:23.480Z,38.60
2023-01-19T21:28:23.451Z,38.00
2023-01-19T21:29:53.049Z,40.50
2023-01-19T21:33:51.082Z,39.70
2023-01-19T21:37:02.722Z,43.20
2023-01-19T21:41:57.305Z,39.80
2023-01-19T21:43:27.816Z,39.70
2023-01-19T21:45:46.561Z,39.80
2023-01-19T21:50:16.205Z,40.60
2023-01-19T21:54:27.263Z,39.40
2023-01-19T21:56:27.710Z,40.10
2023-01-19T21:58:28.985Z,40.70
2023-01-19T22:09:52.112Z,39.20
2023-01-19T22:14:05.665Z,37.90
2023-01-19T22:16:26.022Z,37.60
2023-01-19T22:19:11.034Z,37.20
2023-01-19T22:26:00.670Z,35.40
2023-01-19T22:27:26.936Z,36.70
2023-01-19T22:31:46.788Z,35.80
2023-01-19T22:36:24.284Z,34.70
2023-01-19T22:41:27.848Z,35.90
2023-01-19T22:49:29.350Z,37.00
2023-01-19T22:53:19.735Z,36.30
2023-01-19T22:56:06.840Z,35.60
2023-01-19T22:58:44.614Z,34.30
2023-01-19T23:01:25.128Z,32.50
2023-01-19T23:04:44.247Z,33.60
2023-01-19T23:06:35.040Z,33.70
2023-01-19T23:11:07.050Z,32.40
2023-01-19T23:13:51.895Z,32.60
2023-01-19T23:16:52.131Z,33.20
2023-01-19T23:20:14.328Z,30.50
2023-01-19T23:23:19.197Z,31.90
2023-01-19T23:31:46.332Z,32.10
2023-01-19T23:33:51.346Z,33.20
2023-01-19T23:37:31.935Z,34.30
2023-01-19T23:40:57.011Z,34.10
2023-01-19T23:42:29.954Z,35.00
2023-01-19T23:46:14.274Z,35.40
2023-01-19T23:48:40.204Z,35.90
2023-01-19T23:54:21.633Z,36.20
2023-01-19T23:56:41.822Z,38.30
2023-01-19T23:58:50.863Z,37.10
